Terminal Aerodrome Forecast
Issued by NWS

Home | Current Version | Previous Version | Text Only | Print | Product List | Glossary On
Versions: 1 2 3 4 5 6 7 8 9 10 11 12 13 14 15 16 17 18
649
FTUS46 KLOX 261744
TAFLGB
TAF
KLGB 261744Z 2618/2718 VRB05KT P6SM SCT006
     FM261900 18007KT P6SM SKC
     FM262200 30012KT P6SM SKC
     FM270500 24006KT P6SM SKC
     FM271100 VRB03KT P6SM SCT006=

USA.gov is the U.S. government's official web portal to all federal, state and local government web resources and services.